sensor_id;sensor_type;location;lat;lon;timestamp;P1;durP1;ratioP1;P2;durP2;ratioP2
10715;SDS011;5409;42.620;23.316;2023-06-14T00:01:46;13.00;;;8.30;;
10715;SDS011;5409;42.620;23.316;2023-06-14T00:04:13;12.35;;;9.25;;
10715;SDS011;5409;42.620;23.316;2023-06-14T00:06:41;11.93;;;8.82;;
10715;SDS011;5409;42.620;23.316;2023-06-14T00:09:10;11.35;;;8.65;;
10715;SDS011;5409;42.620;23.316;2023-06-14T00:11:37;12.80;;;9.60;;
10715;SDS011;5409;42.620;23.316;2023-06-14T00:14:04;11.48;;;9.18;;
10715;SDS011;5409;42.620;23.316;2023-06-14T00:16:31;13.02;;;8.77;;
10715;SDS011;5409;42.620;23.316;2023-06-14T00:19:00;12.07;;;7.90;;
10715;SDS011;5409;42.620;23.316;2023-06-14T00:21:28;10.55;;;8.82;;
10715;SDS011;5409;42.620;23.316;2023-06-14T00:23:55;13.27;;;8.95;;
10715;SDS011;5409;42.620;23.316;2023-06-14T00:26:21;11.85;;;8.00;;
10715;SDS011;5409;42.620;23.316;2023-06-14T00:28:48;12.95;;;7.80;;
10715;SDS011;5409;42.620;23.316;2023-06-14T00:31:15;8.70;;;7.55;;
10715;SDS011;5409;42.620;23.316;2023-06-14T00:33:42;11.65;;;7.90;;
10715;SDS011;5409;42.620;23.316;2023-06-14T00:36:10;12.20;;;9.02;;
10715;SDS011;5409;42.620;23.316;2023-06-14T00:38:36;14.38;;;12.20;;
10715;SDS011;5409;42.620;23.316;2023-06-14T00:41:03;12.52;;;10.27;;
10715;SDS011;5409;42.620;23.316;2023-06-14T00:43:30;10.25;;;7.97;;
10715;SDS011;5409;42.620;23.316;2023-06-14T00:45:57;10.85;;;7.97;;
10715;SDS011;5409;42.620;23.316;2023-06-14T00:48:24;13.40;;;8.57;;
10715;SDS011;5409;42.620;23.316;2023-06-14T00:50:51;11.20;;;8.20;;
10715;SDS011;5409;42.620;23.316;2023-06-14T00:53:19;10.45;;;8.40;;
10715;SDS011;5409;42.620;23.316;2023-06-14T00:55:48;10.15;;;8.60;;
10715;SDS011;5409;42.620;23.316;2023-06-14T00:58:14;9.90;;;7.57;;
10715;SDS011;5409;42.620;23.316;2023-06-14T01:00:42;11.07;;;8.13;;
10715;SDS011;5409;42.620;23.316;2023-06-14T01:03:09;9.45;;;7.95;;
10715;SDS011;5409;42.620;23.316;2023-06-14T01:05:37;16.00;;;8.55;;
10715;SDS011;5409;42.620;23.316;2023-06-14T01:08:11;8.93;;;8.02;;
10715;SDS011;5409;42.620;23.316;2023-06-14T01:10:47;10.85;;;8.63;;
10715;SDS011;5409;42.620;23.316;2023-06-14T01:13:20;9.20;;;7.85;;
10715;SDS011;5409;42.620;23.316;2023-06-14T01:15:50;8.77;;;7.68;;
10715;SDS011;5409;42.620;23.316;2023-06-14T01:18:17;11.75;;;7.57;;
10715;SDS011;5409;42.620;23.316;2023-06-14T01:20:44;9.95;;;7.82;;
10715;SDS011;5409;42.620;23.316;2023-06-14T01:23:15;10.93;;;7.97;;
10715;SDS011;5409;42.620;23.316;2023-06-14T01:25:42;11.80;;;8.20;;
10715;SDS011;5409;42.620;23.316;2023-06-14T01:28:09;10.07;;;8.23;;
10715;SDS011;5409;42.620;23.316;2023-06-14T01:30:38;13.40;;;8.27;;
10715;SDS011;5409;42.620;23.316;2023-06-14T01:33:10;10.70;;;8.50;;
10715;SDS011;5409;42.620;23.316;2023-06-14T01:35:38;9.60;;;7.97;;
10715;SDS011;5409;42.620;23.316;2023-06-14T01:38:04;10.13;;;8.57;;
10715;SDS011;5409;42.620;23.316;2023-06-14T01:40:34;10.07;;;8.68;;
10715;SDS011;5409;42.620;23.316;2023-06-14T01:43:01;13.82;;;8.90;;
10715;SDS011;5409;42.620;23.316;2023-06-14T01:45:29;12.88;;;9.60;;
10715;SDS011;5409;42.620;23.316;2023-06-14T01:47:57;9.77;;;8.65;;
10715;SDS011;5409;42.620;23.316;2023-06-14T01:50:27;9.80;;;8.30;;
10715;SDS011;5409;42.620;23.316;2023-06-14T01:52:54;15.00;;;7.95;;
10715;SDS011;5409;42.620;23.316;2023-06-14T01:55:21;10.93;;;8.15;;
10715;SDS011;5409;42.620;23.316;2023-06-14T01:57:51;10.45;;;7.90;;
10715;SDS011;5409;42.620;23.316;2023-06-14T02:00:18;11.18;;;8.80;;
10715;SDS011;5409;42.620;23.316;2023-06-14T02:02:45;12.38;;;8.50;;
10715;SDS011;5409;42.620;23.316;2023-06-14T02:05:12;10.55;;;8.55;;
10715;SDS011;5409;42.620;23.316;2023-06-14T02:07:38;13.65;;;9.15;;
10715;SDS011;5409;42.620;23.316;2023-06-14T02:10:05;9.40;;;8.50;;
10715;SDS011;5409;42.620;23.316;2023-06-14T02:12:33;12.82;;;8.70;;
10715;SDS011;5409;42.620;23.316;2023-06-14T02:15:01;10.13;;;8.50;;
10715;SDS011;5409;42.620;23.316;2023-06-14T02:17:28;14.25;;;8.73;;
10715;SDS011;5409;42.620;23.316;2023-06-14T02:19:55;9.43;;;8.30;;
10715;SDS011;5409;42.620;23.316;2023-06-14T02:22:22;12.45;;;8.52;;
10715;SDS011;5409;42.620;23.316;2023-06-14T02:24:49;10.73;;;8.85;;
10715;SDS011;5409;42.620;23.316;2023-06-14T02:27:15;11.82;;;8.18;;
10715;SDS011;5409;42.620;23.316;2023-06-14T02:29:42;10.35;;;8.48;;
10715;SDS011;5409;42.620;23.316;2023-06-14T02:32:11;9.75;;;8.55;;
10715;SDS011;5409;42.620;23.316;2023-06-14T02:34:37;11.18;;;9.10;;
10715;SDS011;5409;42.620;23.316;2023-06-14T02:37:06;9.52;;;8.55;;
10715;SDS011;5409;42.620;23.316;2023-06-14T02:39:33;14.75;;;9.32;;
10715;SDS011;5409;42.620;23.316;2023-06-14T02:41:59;11.48;;;9.15;;
10715;SDS011;5409;42.620;23.316;2023-06-14T02:44:26;11.60;;;8.95;;
10715;SDS011;5409;42.620;23.316;2023-06-14T02:46:53;11.80;;;8.57;;
10715;SDS011;5409;42.620;23.316;2023-06-14T02:49:21;13.32;;;8.23;;
10715;SDS011;5409;42.620;23.316;2023-06-14T02:51:48;9.63;;;8.43;;
10715;SDS011;5409;42.620;23.316;2023-06-14T02:54:15;9.93;;;8.32;;
10715;SDS011;5409;42.620;23.316;2023-06-14T02:56:42;11.00;;;9.02;;
10715;SDS011;5409;42.620;23.316;2023-06-14T02:59:08;9.02;;;8.13;;
10715;SDS011;5409;42.620;23.316;2023-06-14T03:01:36;12.25;;;8.88;;
10715;SDS011;5409;42.620;23.316;2023-06-14T03:04:06;11.57;;;7.82;;
10715;SDS011;5409;42.620;23.316;2023-06-14T03:06:34;11.75;;;9.18;;
10715;SDS011;5409;42.620;23.316;2023-06-14T03:09:01;12.55;;;8.70;;
10715;SDS011;5409;42.620;23.316;2023-06-14T03:11:29;10.38;;;8.98;;
10715;SDS011;5409;42.620;23.316;2023-06-14T03:13:56;11.75;;;9.30;;
10715;SDS011;5409;42.620;23.316;2023-06-14T03:16:24;10.18;;;8.10;;
10715;SDS011;5409;42.620;23.316;2023-06-14T03:18:55;10.40;;;8.00;;
10715;SDS011;5409;42.620;23.316;2023-06-14T03:21:22;9.40;;;8.38;;
10715;SDS011;5409;42.620;23.316;2023-06-14T03:23:51;9.68;;;8.13;;
10715;SDS011;5409;42.620;23.316;2023-06-14T03:26:18;13.50;;;8.63;;
10715;SDS011;5409;42.620;23.316;2023-06-14T03:28:45;12.07;;;8.23;;
10715;SDS011;5409;42.620;23.316;2023-06-14T03:31:12;16.70;;;8.45;;
10715;SDS011;5409;42.620;23.316;2023-06-14T03:33:40;11.35;;;8.80;;
10715;SDS011;5409;42.620;23.316;2023-06-14T03:36:07;12.85;;;7.90;;
10715;SDS011;5409;42.620;23.316;2023-06-14T03:38:34;15.82;;;8.00;;
10715;SDS011;5409;42.620;23.316;2023-06-14T03:41:02;10.02;;;8.02;;
10715;SDS011;5409;42.620;23.316;2023-06-14T03:43:29;8.35;;;7.45;;
10715;SDS011;5409;42.620;23.316;2023-06-14T03:45:56;13.45;;;8.32;;
10715;SDS011;5409;42.620;23.316;2023-06-14T03:48:22;9.07;;;7.90;;
10715;SDS011;5409;42.620;23.316;2023-06-14T03:50:49;10.57;;;7.90;;
10715;SDS011;5409;42.620;23.316;2023-06-14T03:53:16;9.82;;;7.90;;
10715;SDS011;5409;42.620;23.316;2023-06-14T03:55:45;12.13;;;8.27;;
10715;SDS011;5409;42.620;23.316;2023-06-14T03:58:14;12.00;;;8.73;;
10715;SDS011;5409;42.620;23.316;2023-06-14T04:00:41;13.15;;;7.70;;
10715;SDS011;5409;42.620;23.316;2023-06-14T04:03:08;8.60;;;7.45;;
10715;SDS011;5409;42.620;23.316;2023-06-14T04:05:35;10.40;;;7.50;;
10715;SDS011;5409;42.620;23.316;2023-06-14T04:08:02;12.48;;;7.78;;
10715;SDS011;5409;42.620;23.316;2023-06-14T04:10:29;8.80;;;6.88;;
10715;SDS011;5409;42.620;23.316;2023-06-14T04:12:56;9.90;;;6.70;;
10715;SDS011;5409;42.620;23.316;2023-06-14T04:15:24;11.60;;;6.65;;
10715;SDS011;5409;42.620;23.316;2023-06-14T04:17:53;11.80;;;6.90;;
10715;SDS011;5409;42.620;23.316;2023-06-14T04:20:22;13.35;;;6.82;;
10715;SDS011;5409;42.620;23.316;2023-06-14T04:22:50;9.07;;;7.00;;
10715;SDS011;5409;42.620;23.316;2023-06-14T04:25:17;9.20;;;7.22;;
10715;SDS011;5409;42.620;23.316;2023-06-14T04:27:44;13.73;;;6.60;;
10715;SDS011;5409;42.620;23.316;2023-06-14T04:30:12;7.90;;;6.82;;
10715;SDS011;5409;42.620;23.316;2023-06-14T04:32:40;11.88;;;7.30;;
10715;SDS011;5409;42.620;23.316;2023-06-14T04:35:08;11.25;;;7.60;;
10715;SDS011;5409;42.620;23.316;2023-06-14T04:37:35;14.63;;;10.30;;
10715;SDS011;5409;42.620;23.316;2023-06-14T04:40:05;16.25;;;11.27;;
10715;SDS011;5409;42.620;23.316;2023-06-14T04:42:33;16.00;;;11.75;;
10715;SDS011;5409;42.620;23.316;2023-06-14T04:45:02;17.52;;;12.52;;
10715;SDS011;5409;42.620;23.316;2023-06-14T04:47:29;15.25;;;12.05;;
10715;SDS011;5409;42.620;23.316;2023-06-14T04:49:57;16.55;;;13.07;;
10715;SDS011;5409;42.620;23.316;2023-06-14T04:52:25;17.35;;;12.45;;
10715;SDS011;5409;42.620;23.316;2023-06-14T04:54:54;19.30;;;13.75;;
10715;SDS011;5409;42.620;23.316;2023-06-14T04:57:21;18.50;;;13.15;;
10715;SDS011;5409;42.620;23.316;2023-06-14T04:59:50;20.70;;;13.80;;
10715;SDS011;5409;42.620;23.316;2023-06-14T05:02:20;18.13;;;13.35;;
10715;SDS011;5409;42.620;23.316;2023-06-14T05:04:48;23.58;;;13.38;;
10715;SDS011;5409;42.620;23.316;2023-06-14T05:07:16;18.20;;;13.18;;
10715;SDS011;5409;42.620;23.316;2023-06-14T05:09:44;19.63;;;13.60;;
10715;SDS011;5409;42.620;23.316;2023-06-14T05:12:11;18.27;;;12.85;;
10715;SDS011;5409;42.620;23.316;2023-06-14T05:14:38;17.38;;;12.60;;
10715;SDS011;5409;42.620;23.316;2023-06-14T05:17:04;17.65;;;12.25;;
10715;SDS011;5409;42.620;23.316;2023-06-14T05:19:32;14.77;;;11.70;;
10715;SDS011;5409;42.620;23.316;2023-06-14T05:21:58;15.18;;;11.38;;
10715;SDS011;5409;42.620;23.316;2023-06-14T05:24:27;14.07;;;11.52;;
10715;SDS011;5409;42.620;23.316;2023-06-14T05:26:54;11.40;;;10.07;;
10715;SDS011;5409;42.620;23.316;2023-06-14T05:29:21;13.68;;;9.57;;
10715;SDS011;5409;42.620;23.316;2023-06-14T05:31:48;12.38;;;10.10;;
10715;SDS011;5409;42.620;23.316;2023-06-14T05:34:15;11.07;;;9.95;;
10715;SDS011;5409;42.620;23.316;2023-06-14T05:36:41;13.13;;;10.07;;
10715;SDS011;5409;42.620;23.316;2023-06-14T05:39:08;14.75;;;10.70;;
10715;SDS011;5409;42.620;23.316;2023-06-14T05:41:36;12.50;;;10.73;;
10715;SDS011;5409;42.620;23.316;2023-06-14T05:44:03;16.33;;;10.70;;
10715;SDS011;5409;42.620;23.316;2023-06-14T05:46:30;14.65;;;10.43;;
10715;SDS011;5409;42.620;23.316;2023-06-14T05:48:57;12.35;;;10.68;;
10715;SDS011;5409;42.620;23.316;2023-06-14T05:51:23;15.80;;;10.77;;
10715;SDS011;5409;42.620;23.316;2023-06-14T05:53:51;12.85;;;10.57;;
10715;SDS011;5409;42.620;23.316;2023-06-14T05:56:18;13.70;;;11.15;;
10715;SDS011;5409;42.620;23.316;2023-06-14T05:58:46;12.10;;;10.80;;
10715;SDS011;5409;42.620;23.316;2023-06-14T06:01:13;16.42;;;12.30;;
10715;SDS011;5409;42.620;23.316;2023-06-14T06:03:41;18.23;;;11.75;;
10715;SDS011;5409;42.620;23.316;2023-06-14T06:06:11;13.95;;;11.88;;
10715;SDS011;5409;42.620;23.316;2023-06-14T06:08:37;14.43;;;12.30;;
10715;SDS011;5409;42.620;23.316;2023-06-14T06:11:05;15.70;;;12.45;;
10715;SDS011;5409;42.620;23.316;2023-06-14T06:13:34;14.95;;;11.60;;
10715;SDS011;5409;42.620;23.316;2023-06-14T06:16:03;15.43;;;12.15;;
10715;SDS011;5409;42.620;23.316;2023-06-14T06:18:30;17.55;;;12.32;;
10715;SDS011;5409;42.620;23.316;2023-06-14T06:20:57;15.23;;;12.10;;
10715;SDS011;5409;42.620;23.316;2023-06-14T06:23:23;18.33;;;13.93;;
10715;SDS011;5409;42.620;23.316;2023-06-14T06:25:51;17.50;;;13.80;;
10715;SDS011;5409;42.620;23.316;2023-06-14T06:28:18;16.00;;;13.25;;
10715;SDS011;5409;42.620;23.316;2023-06-14T06:30:45;18.15;;;13.52;;
10715;SDS011;5409;42.620;23.316;2023-06-14T06:33:13;16.88;;;12.48;;
10715;SDS011;5409;42.620;23.316;2023-06-14T06:35:40;17.25;;;12.82;;
10715;SDS011;5409;42.620;23.316;2023-06-14T06:38:07;15.80;;;12.57;;
10715;SDS011;5409;42.620;23.316;2023-06-14T06:40:34;15.35;;;13.25;;
10715;SDS011;5409;42.620;23.316;2023-06-14T06:43:01;16.92;;;12.68;;
10715;SDS011;5409;42.620;23.316;2023-06-14T06:45:28;15.25;;;12.48;;
10715;SDS011;5409;42.620;23.316;2023-06-14T06:47:55;14.90;;;11.90;;
10715;SDS011;5409;42.620;23.316;2023-06-14T06:50:23;17.50;;;12.50;;
10715;SDS011;5409;42.620;23.316;2023-06-14T06:52:50;20.60;;;13.80;;
10715;SDS011;5409;42.620;23.316;2023-06-14T06:55:17;14.77;;;12.55;;
10715;SDS011;5409;42.620;23.316;2023-06-14T06:57:44;13.70;;;10.90;;
10715;SDS011;5409;42.620;23.316;2023-06-14T07:00:15;15.80;;;11.02;;
10715;SDS011;5409;42.620;23.316;2023-06-14T07:02:42;12.98;;;11.10;;
10715;SDS011;5409;42.620;23.316;2023-06-14T07:05:09;12.45;;;11.13;;
10715;SDS011;5409;42.620;23.316;2023-06-14T07:07:37;13.15;;;10.95;;
10715;SDS011;5409;42.620;23.316;2023-06-14T07:10:04;11.13;;;10.02;;
10715;SDS011;5409;42.620;23.316;2023-06-14T07:12:32;12.77;;;10.45;;
10715;SDS011;5409;42.620;23.316;2023-06-14T07:15:04;12.73;;;10.52;;
10715;SDS011;5409;42.620;23.316;2023-06-14T07:17:32;12.23;;;10.43;;
10715;SDS011;5409;42.620;23.316;2023-06-14T07:19:59;13.20;;;11.50;;
10715;SDS011;5409;42.620;23.316;2023-06-14T07:22:26;13.73;;;10.90;;
10715;SDS011;5409;42.620;23.316;2023-06-14T07:24:54;11.35;;;10.20;;
10715;SDS011;5409;42.620;23.316;2023-06-14T07:27:20;14.27;;;10.40;;
10715;SDS011;5409;42.620;23.316;2023-06-14T07:29:47;14.93;;;10.68;;
10715;SDS011;5409;42.620;23.316;2023-06-14T07:32:14;12.88;;;10.13;;
10715;SDS011;5409;42.620;23.316;2023-06-14T07:34:40;10.70;;;9.57;;
10715;SDS011;5409;42.620;23.316;2023-06-14T07:37:07;12.73;;;9.88;;
10715;SDS011;5409;42.620;23.316;2023-06-14T07:39:34;13.45;;;10.40;;
10715;SDS011;5409;42.620;23.316;2023-06-14T07:42:02;12.20;;;9.98;;
10715;SDS011;5409;42.620;23.316;2023-06-14T07:44:29;10.73;;;9.45;;
10715;SDS011;5409;42.620;23.316;2023-06-14T07:46:56;10.60;;;8.93;;
10715;SDS011;5409;42.620;23.316;2023-06-14T07:49:25;13.77;;;10.77;;
10715;SDS011;5409;42.620;23.316;2023-06-14T07:51:51;10.80;;;9.32;;
10715;SDS011;5409;42.620;23.316;2023-06-14T07:54:18;12.35;;;10.98;;
10715;SDS011;5409;42.620;23.316;2023-06-14T07:56:45;12.55;;;11.25;;
10715;SDS011;5409;42.620;23.316;2023-06-14T07:59:13;12.80;;;11.02;;
10715;SDS011;5409;42.620;23.316;2023-06-14T08:01:40;12.60;;;10.43;;
10715;SDS011;5409;42.620;23.316;2023-06-14T08:04:12;16.58;;;10.35;;
10715;SDS011;5409;42.620;23.316;2023-06-14T08:06:38;11.70;;;10.23;;
10715;SDS011;5409;42.620;23.316;2023-06-14T08:09:09;13.45;;;10.13;;
10715;SDS011;5409;42.620;23.316;2023-06-14T08:11:36;12.30;;;10.25;;
10715;SDS011;5409;42.620;23.316;2023-06-14T08:14:02;12.63;;;10.27;;
10715;SDS011;5409;42.620;23.316;2023-06-14T08:16:30;13.18;;;11.00;;
10715;SDS011;5409;42.620;23.316;2023-06-14T08:18:57;11.30;;;9.82;;
10715;SDS011;5409;42.620;23.316;2023-06-14T08:21:24;14.30;;;10.82;;
10715;SDS011;5409;42.620;23.316;2023-06-14T08:23:52;13.93;;;10.07;;
10715;SDS011;5409;42.620;23.316;2023-06-14T08:26:19;13.65;;;10.93;;
10715;SDS011;5409;42.620;23.316;2023-06-14T08:28:46;12.88;;;10.38;;
10715;SDS011;5409;42.620;23.316;2023-06-14T08:31:12;12.00;;;10.38;;
10715;SDS011;5409;42.620;23.316;2023-06-14T08:33:40;15.48;;;10.77;;
10715;SDS011;5409;42.620;23.316;2023-06-14T08:36:08;15.35;;;11.27;;
10715;SDS011;5409;42.620;23.316;2023-06-14T08:38:35;12.05;;;10.45;;
10715;SDS011;5409;42.620;23.316;2023-06-14T08:41:03;14.55;;;10.95;;
10715;SDS011;5409;42.620;23.316;2023-06-14T08:43:31;14.45;;;11.35;;
10715;SDS011;5409;42.620;23.316;2023-06-14T08:46:00;11.77;;;10.40;;
10715;SDS011;5409;42.620;23.316;2023-06-14T08:48:29;13.63;;;11.07;;
10715;SDS011;5409;42.620;23.316;2023-06-14T08:51:00;16.42;;;9.73;;
10715;SDS011;5409;42.620;23.316;2023-06-14T08:53:29;14.48;;;10.27;;
10715;SDS011;5409;42.620;23.316;2023-06-14T08:55:57;12.75;;;10.38;;
10715;SDS011;5409;42.620;23.316;2023-06-14T08:58:26;13.15;;;10.73;;
10715;SDS011;5409;42.620;23.316;2023-06-14T09:00:54;15.30;;;10.48;;
10715;SDS011;5409;42.620;23.316;2023-06-14T09:03:21;12.80;;;11.23;;
10715;SDS011;5409;42.620;23.316;2023-06-14T09:05:54;13.20;;;11.27;;
10715;SDS011;5409;42.620;23.316;2023-06-14T09:08:23;13.25;;;10.60;;
10715;SDS011;5409;42.620;23.316;2023-06-14T09:10:50;11.98;;;10.70;;
10715;SDS011;5409;42.620;23.316;2023-06-14T09:13:17;12.30;;;10.45;;
10715;SDS011;5409;42.620;23.316;2023-06-14T09:15:44;12.82;;;10.65;;
10715;SDS011;5409;42.620;23.316;2023-06-14T09:18:11;17.13;;;11.05;;
10715;SDS011;5409;42.620;23.316;2023-06-14T09:20:37;12.05;;;10.32;;
10715;SDS011;5409;42.620;23.316;2023-06-14T09:23:04;14.32;;;11.55;;
10715;SDS011;5409;42.620;23.316;2023-06-14T09:25:34;14.45;;;12.18;;
10715;SDS011;5409;42.620;23.316;2023-06-14T09:28:08;15.07;;;12.40;;
10715;SDS011;5409;42.620;23.316;2023-06-14T09:30:36;16.00;;;11.82;;
10715;SDS011;5409;42.620;23.316;2023-06-14T09:33:03;13.30;;;11.07;;
10715;SDS011;5409;42.620;23.316;2023-06-14T09:35:30;14.10;;;11.50;;
10715;SDS011;5409;42.620;23.316;2023-06-14T09:37:58;15.30;;;12.55;;
10715;SDS011;5409;42.620;23.316;2023-06-14T09:40:24;16.45;;;10.43;;
10715;SDS011;5409;42.620;23.316;2023-06-14T09:42:52;12.10;;;10.80;;
10715;SDS011;5409;42.620;23.316;2023-06-14T09:45:20;13.95;;;10.82;;
10715;SDS011;5409;42.620;23.316;2023-06-14T09:47:48;15.85;;;12.52;;
10715;SDS011;5409;42.620;23.316;2023-06-14T09:50:15;12.40;;;10.63;;
10715;SDS011;5409;42.620;23.316;2023-06-14T09:52:42;13.50;;;10.63;;
10715;SDS011;5409;42.620;23.316;2023-06-14T09:55:11;11.73;;;9.20;;
10715;SDS011;5409;42.620;23.316;2023-06-14T09:57:40;13.13;;;9.82;;
10715;SDS011;5409;42.620;23.316;2023-06-14T10:00:11;12.32;;;8.23;;
10715;SDS011;5409;42.620;23.316;2023-06-14T10:02:40;14.75;;;12.25;;
10715;SDS011;5409;42.620;23.316;2023-06-14T10:05:15;12.95;;;11.55;;
10715;SDS011;5409;42.620;23.316;2023-06-14T10:07:48;18.38;;;12.82;;
10715;SDS011;5409;42.620;23.316;2023-06-14T10:10:18;14.38;;;10.27;;
10715;SDS011;5409;42.620;23.316;2023-06-14T10:12:46;16.77;;;11.18;;
10715;SDS011;5409;42.620;23.316;2023-06-14T10:15:15;13.40;;;11.73;;
10715;SDS011;5409;42.620;23.316;2023-06-14T10:17:47;12.18;;;9.52;;
10715;SDS011;5409;42.620;23.316;2023-06-14T10:20:21;14.18;;;9.60;;
10715;SDS011;5409;42.620;23.316;2023-06-14T10:22:56;14.43;;;9.93;;
10715;SDS011;5409;42.620;23.316;2023-06-14T10:25:26;11.80;;;10.57;;
10715;SDS011;5409;42.620;23.316;2023-06-14T10:28:02;16.55;;;12.50;;
10715;SDS011;5409;42.620;23.316;2023-06-14T10:30:32;16.52;;;12.45;;
10715;SDS011;5409;42.620;23.316;2023-06-14T10:33:04;13.02;;;11.15;;
10715;SDS011;5409;42.620;23.316;2023-06-14T10:35:32;11.38;;;10.18;;
10715;SDS011;5409;42.620;23.316;2023-06-14T10:38:08;15.45;;;10.35;;
10715;SDS011;5409;42.620;23.316;2023-06-14T10:40:37;10.73;;;9.63;;
10715;SDS011;5409;42.620;23.316;2023-06-14T10:43:21;14.82;;;11.00;;
10715;SDS011;5409;42.620;23.316;2023-06-14T10:48:43;12.82;;;11.07;;
10715;SDS011;5409;42.620;23.316;2023-06-14T10:51:17;16.10;;;9.70;;
10715;SDS011;5409;42.620;23.316;2023-06-14T10:53:47;12.02;;;9.55;;
10715;SDS011;5409;42.620;23.316;2023-06-14T10:56:24;12.35;;;9.35;;
10715;SDS011;5409;42.620;23.316;2023-06-14T10:58:53;11.98;;;10.40;;
10715;SDS011;5409;42.620;23.316;2023-06-14T11:01:27;12.90;;;10.65;;
10715;SDS011;5409;42.620;23.316;2023-06-14T11:04:06;15.15;;;11.45;;
10715;SDS011;5409;42.620;23.316;2023-06-14T11:12:08;11.05;;;9.88;;
10715;SDS011;5409;42.620;23.316;2023-06-14T11:14:36;11.77;;;10.35;;
10715;SDS011;5409;42.620;23.316;2023-06-14T11:17:06;14.70;;;11.77;;
10715;SDS011;5409;42.620;23.316;2023-06-14T11:19:32;13.05;;;10.88;;
10715;SDS011;5409;42.620;23.316;2023-06-14T11:21:59;14.02;;;11.02;;
10715;SDS011;5409;42.620;23.316;2023-06-14T11:24:26;16.13;;;10.05;;
10715;SDS011;5409;42.620;23.316;2023-06-14T11:26:52;11.27;;;10.10;;
10715;SDS011;5409;42.620;23.316;2023-06-14T11:29:21;11.57;;;10.18;;
10715;SDS011;5409;42.620;23.316;2023-06-14T11:31:48;10.98;;;9.52;;
10715;SDS011;5409;42.620;23.316;2023-06-14T11:34:16;12.70;;;9.50;;
10715;SDS011;5409;42.620;23.316;2023-06-14T11:36:43;11.00;;;9.23;;
10715;SDS011;5409;42.620;23.316;2023-06-14T11:39:12;9.95;;;8.95;;
10715;SDS011;5409;42.620;23.316;2023-06-14T11:41:40;9.75;;;8.32;;
10715;SDS011;5409;42.620;23.316;2023-06-14T11:44:08;10.15;;;8.18;;
10715;SDS011;5409;42.620;23.316;2023-06-14T11:46:36;12.68;;;8.18;;
10715;SDS011;5409;42.620;23.316;2023-06-14T11:49:04;12.43;;;7.55;;
10715;SDS011;5409;42.620;23.316;2023-06-14T11:51:35;8.40;;;7.40;;
10715;SDS011;5409;42.620;23.316;2023-06-14T11:54:03;8.70;;;7.90;;
10715;SDS011;5409;42.620;23.316;2023-06-14T11:56:31;9.77;;;7.93;;
10715;SDS011;5409;42.620;23.316;2023-06-14T11:58:58;9.38;;;7.63;;
10715;SDS011;5409;42.620;23.316;2023-06-14T12:01:26;9.02;;;7.47;;
10715;SDS011;5409;42.620;23.316;2023-06-14T12:03:53;8.40;;;7.07;;
10715;SDS011;5409;42.620;23.316;2023-06-14T12:06:25;7.97;;;7.18;;
10715;SDS011;5409;42.620;23.316;2023-06-14T12:08:56;8.77;;;7.43;;
10715;SDS011;5409;42.620;23.316;2023-06-14T12:11:23;8.05;;;7.32;;
10715;SDS011;5409;42.620;23.316;2023-06-14T12:13:50;7.43;;;6.72;;
10715;SDS011;5409;42.620;23.316;2023-06-14T12:16:17;7.82;;;7.03;;
10715;SDS011;5409;42.620;23.316;2023-06-14T12:18:43;8.98;;;7.10;;
10715;SDS011;5409;42.620;23.316;2023-06-14T12:21:10;16.83;;;10.52;;
10715;SDS011;5409;42.620;23.316;2023-06-14T12:23:43;12.60;;;11.30;;
10715;SDS011;5409;42.620;23.316;2023-06-14T12:26:16;10.32;;;7.45;;
10715;SDS011;5409;42.620;23.316;2023-06-14T12:28:45;7.82;;;6.93;;
10715;SDS011;5409;42.620;23.316;2023-06-14T12:31:13;8.60;;;7.00;;
10715;SDS011;5409;42.620;23.316;2023-06-14T12:33:41;10.23;;;7.53;;
10715;SDS011;5409;42.620;23.316;2023-06-14T12:36:08;9.82;;;7.35;;
10715;SDS011;5409;42.620;23.316;2023-06-14T12:38:36;9.43;;;7.82;;
10715;SDS011;5409;42.620;23.316;2023-06-14T12:41:03;10.02;;;8.35;;
10715;SDS011;5409;42.620;23.316;2023-06-14T12:43:32;10.10;;;8.38;;
10715;SDS011;5409;42.620;23.316;2023-06-14T12:45:59;11.10;;;8.70;;
10715;SDS011;5409;42.620;23.316;2023-06-14T12:48:25;9.85;;;8.23;;
10715;SDS011;5409;42.620;23.316;2023-06-14T12:50:54;9.57;;;8.32;;
10715;SDS011;5409;42.620;23.316;2023-06-14T12:53:21;12.35;;;9.15;;
10715;SDS011;5409;42.620;23.316;2023-06-14T12:55:48;10.60;;;8.43;;
10715;SDS011;5409;42.620;23.316;2023-06-14T12:58:15;10.10;;;9.10;;
10715;SDS011;5409;42.620;23.316;2023-06-14T13:00:43;10.55;;;8.77;;
10715;SDS011;5409;42.620;23.316;2023-06-14T13:03:10;9.70;;;8.70;;
10715;SDS011;5409;42.620;23.316;2023-06-14T13:05:37;10.07;;;9.07;;
10715;SDS011;5409;42.620;23.316;2023-06-14T13:08:06;9.93;;;8.88;;
10715;SDS011;5409;42.620;23.316;2023-06-14T13:10:33;11.75;;;9.57;;
10715;SDS011;5409;42.620;23.316;2023-06-14T13:13:00;12.20;;;9.75;;
10715;SDS011;5409;42.620;23.316;2023-06-14T13:15:27;12.27;;;10.02;;
10715;SDS011;5409;42.620;23.316;2023-06-14T13:17:55;16.50;;;11.02;;
10715;SDS011;5409;42.620;23.316;2023-06-14T13:20:22;14.63;;;10.07;;
10715;SDS011;5409;42.620;23.316;2023-06-14T13:22:49;11.20;;;10.02;;
10715;SDS011;5409;42.620;23.316;2023-06-14T13:25:16;14.73;;;10.55;;
10715;SDS011;5409;42.620;23.316;2023-06-14T13:27:42;14.98;;;11.00;;
10715;SDS011;5409;42.620;23.316;2023-06-14T13:30:09;12.48;;;11.18;;
10715;SDS011;5409;42.620;23.316;2023-06-14T13:32:37;17.92;;;12.98;;
10715;SDS011;5409;42.620;23.316;2023-06-14T13:35:06;14.48;;;12.25;;
10715;SDS011;5409;42.620;23.316;2023-06-14T13:37:33;15.25;;;11.65;;
10715;SDS011;5409;42.620;23.316;2023-06-14T13:39:59;15.38;;;12.85;;
10715;SDS011;5409;42.620;23.316;2023-06-14T13:42:27;12.90;;;11.23;;
10715;SDS011;5409;42.620;23.316;2023-06-14T13:44:56;13.85;;;11.77;;
10715;SDS011;5409;42.620;23.316;2023-06-14T13:47:23;15.70;;;11.82;;
10715;SDS011;5409;42.620;23.316;2023-06-14T13:49:49;11.85;;;10.40;;
10715;SDS011;5409;42.620;23.316;2023-06-14T13:52:18;12.50;;;10.27;;
10715;SDS011;5409;42.620;23.316;2023-06-14T13:54:44;11.20;;;9.60;;
10715;SDS011;5409;42.620;23.316;2023-06-14T13:57:11;13.00;;;10.43;;
10715;SDS011;5409;42.620;23.316;2023-06-14T13:59:38;10.98;;;9.43;;
10715;SDS011;5409;42.620;23.316;2023-06-14T14:02:05;10.60;;;9.50;;
10715;SDS011;5409;42.620;23.316;2023-06-14T14:04:32;10.27;;;9.20;;
10715;SDS011;5409;42.620;23.316;2023-06-14T14:06:59;9.50;;;8.52;;
10715;SDS011;5409;42.620;23.316;2023-06-14T14:09:27;8.80;;;7.90;;
10715;SDS011;5409;42.620;23.316;2023-06-14T14:11:54;7.45;;;6.65;;
10715;SDS011;5409;42.620;23.316;2023-06-14T14:14:21;9.38;;;7.25;;
10715;SDS011;5409;42.620;23.316;2023-06-14T14:16:48;8.88;;;7.97;;
10715;SDS011;5409;42.620;23.316;2023-06-14T14:19:16;7.93;;;7.13;;
10715;SDS011;5409;42.620;23.316;2023-06-14T14:21:43;8.32;;;7.05;;
10715;SDS011;5409;42.620;23.316;2023-06-14T14:24:10;8.07;;;6.15;;
10715;SDS011;5409;42.620;23.316;2023-06-14T14:26:38;6.78;;;6.07;;
10715;SDS011;5409;42.620;23.316;2023-06-14T14:29:05;8.25;;;6.45;;
10715;SDS011;5409;42.620;23.316;2023-06-14T14:31:32;7.38;;;6.68;;
10715;SDS011;5409;42.620;23.316;2023-06-14T14:33:59;7.22;;;6.22;;
10715;SDS011;5409;42.620;23.316;2023-06-14T14:36:25;10.20;;;6.35;;
10715;SDS011;5409;42.620;23.316;2023-06-14T14:38:52;9.32;;;7.10;;
10715;SDS011;5409;42.620;23.316;2023-06-14T14:41:19;7.82;;;7.03;;
10715;SDS011;5409;42.620;23.316;2023-06-14T14:43:47;10.40;;;7.95;;